createdAt,value
2018-02-21T00:00:00.492Z,1019.57
2018-02-21T00:01:00.469Z,1019.55
2018-02-21T00:02:00.453Z,1019.56
2018-02-21T00:03:00.428Z,1019.56
2018-02-21T00:04:00.411Z,1019.57
2018-02-21T00:05:00.403Z,1019.57
2018-02-21T00:06:00.377Z,1019.57
2018-02-21T00:07:00.347Z,1019.60
2018-02-21T00:08:00.329Z,1019.55
2018-02-21T00:09:00.313Z,1019.59
2018-02-21T00:10:00.289Z,1019.66
2018-02-21T00:11:00.284Z,1019.64
2018-02-21T00:12:00.246Z,1019.66
2018-02-21T00:13:00.222Z,1019.72
2018-02-21T00:14:00.220Z,1019.73
2018-02-21T00:15:00.182Z,1019.74
2018-02-21T00:16:00.162Z,1019.74
2018-02-21T00:17:00.142Z,1019.77
2018-02-21T00:18:00.118Z,1019.82
2018-02-21T00:19:00.102Z,1019.80
2018-02-21T00:20:00.096Z,1019.83
2018-02-21T00:21:00.064Z,1019.83
2018-02-21T00:22:00.042Z,1019.80
2018-02-21T00:23:00.020Z,1019.78
2018-02-21T00:24:00.001Z,1019.78
2018-02-21T00:24:59.997Z,1019.73
2018-02-21T00:25:59.958Z,1019.76
2018-02-21T00:26:59.936Z,1019.78
2018-02-21T00:27:59.917Z,1019.77
2018-02-21T00:28:59.909Z,1019.76
2018-02-21T00:29:59.874Z,1019.76
2018-02-21T00:30:59.871Z,1019.74
2018-02-21T00:31:59.834Z,1019.70
2018-02-21T00:32:59.811Z,1019.71
2018-02-21T00:33:59.795Z,1019.69
2018-02-21T00:34:59.768Z,1019.70
2018-02-21T00:35:59.766Z,1019.71
2018-02-21T00:36:59.731Z,1019.69
2018-02-21T00:37:59.725Z,1019.65
2018-02-21T00:38:59.705Z,1019.66
2018-02-21T00:39:59.668Z,1019.73
2018-02-21T00:40:59.651Z,1019.70
2018-02-21T00:41:59.632Z,1019.80
2018-02-21T00:42:59.622Z,1019.83
2018-02-21T00:43:59.589Z,1019.88
2018-02-21T00:44:59.565Z,1019.91
2018-02-21T00:45:59.547Z,1019.95
2018-02-21T00:46:59.525Z,1019.94
2018-02-21T00:47:59.518Z,1019.95
2018-02-21T00:48:59.486Z,1019.94
2018-02-21T00:49:59.462Z,1019.99
2018-02-21T00:50:59.441Z,1019.95
2018-02-21T00:51:59.455Z,1019.90
2018-02-21T00:52:59.419Z,1019.91
2018-02-21T00:53:59.379Z,1019.90
2018-02-21T00:54:59.361Z,1019.90
2018-02-21T00:55:59.339Z,1019.85
2018-02-21T00:56:59.321Z,1019.85
2018-02-21T00:57:59.296Z,1019.84
2018-02-21T00:58:59.293Z,1019.78
2018-02-21T00:59:59.258Z,1019.77
2018-02-21T01:00:59.231Z,1019.74
2018-02-21T01:01:59.216Z,1019.74
2018-02-21T01:02:59.195Z,1019.71
2018-02-21T01:03:59.172Z,1019.71
2018-02-21T01:04:59.167Z,1019.69
2018-02-21T01:05:59.146Z,1019.74
2018-02-21T01:06:59.115Z,1019.72
2018-02-21T01:07:59.087Z,1019.72
2018-02-21T01:08:59.073Z,1019.74
2018-02-21T01:09:59.051Z,1019.75
2018-02-21T01:10:59.043Z,1019.75
2018-02-21T01:11:59.023Z,1019.73
2018-02-21T01:12:58.983Z,1019.76
2018-02-21T01:13:58.963Z,1019.78
2018-02-21T01:14:58.943Z,1019.73
2018-02-21T01:15:58.923Z,1019.70
2018-02-21T01:16:58.905Z,1019.67
2018-02-21T01:17:58.897Z,1019.65
2018-02-21T01:18:58.864Z,1019.64
2018-02-21T01:19:58.839Z,1019.63
2018-02-21T01:20:58.822Z,1019.66
2018-02-21T01:21:58.798Z,1019.65
2018-02-21T01:22:58.779Z,1019.66
2018-02-21T01:24:19.770Z,1019.69
2018-02-21T01:24:59.278Z,1019.67
2018-02-21T01:25:58.716Z,1019.70
2018-02-21T01:26:58.716Z,1019.72
2018-02-21T01:27:58.677Z,1019.72
2018-02-21T01:28:58.671Z,1019.71
2018-02-21T01:29:58.632Z,1019.75
2018-02-21T01:30:58.614Z,1019.76
2018-02-21T01:31:58.594Z,1019.83
2018-02-21T01:32:58.572Z,1019.81
2018-02-21T01:33:58.547Z,1019.75
2018-02-21T01:34:58.544Z,1019.76
2018-02-21T01:35:58.509Z,1019.77
2018-02-21T01:36:58.488Z,1019.77
2018-02-21T01:37:58.466Z,1019.77
2018-02-21T01:38:58.467Z,1019.79
2018-02-21T01:39:58.427Z,1019.73
2018-02-21T01:40:58.403Z,1019.74
2018-02-21T01:41:58.394Z,1019.77
2018-02-21T01:42:58.364Z,1019.77
2018-02-21T01:43:58.346Z,1019.74
2018-02-21T01:44:58.338Z,1019.73
2018-02-21T01:45:58.299Z,1019.72
2018-02-21T01:46:58.284Z,1019.67
2018-02-21T01:47:58.259Z,1019.73
2018-02-21T01:48:58.240Z,1019.71
2018-02-21T01:49:58.236Z,1019.69
2018-02-21T01:50:58.198Z,1019.69
2018-02-21T01:51:58.194Z,1019.70
2018-02-21T01:52:58.158Z,1019.68
2018-02-21T01:53:58.135Z,1019.71
2018-02-21T01:54:58.111Z,1019.69
2018-02-21T01:55:58.092Z,1019.67
2018-02-21T01:56:58.071Z,1019.70
2018-02-21T01:57:58.065Z,1019.71
2018-02-21T01:58:58.800Z,1019.71
2018-02-21T01:59:58.009Z,1019.75
2018-02-21T02:00:57.989Z,1019.72
2018-02-21T02:01:57.969Z,1019.71
2018-02-21T02:02:57.960Z,1019.76
2018-02-21T02:03:57.948Z,1019.80
2018-02-21T02:04:57.904Z,1019.79
2018-02-21T02:05:57.884Z,1019.80
2018-02-21T02:06:57.881Z,1019.81
2018-02-21T02:07:57.843Z,1019.79
2018-02-21T02:08:57.824Z,1019.79
2018-02-21T02:09:57.795Z,1019.81
2018-02-21T02:10:57.784Z,1019.83
2018-02-21T02:11:57.756Z,1019.81
2018-02-21T02:12:57.758Z,1019.80
2018-02-21T02:13:57.716Z,1019.77
2018-02-21T02:14:57.697Z,1019.71
2018-02-21T02:15:57.676Z,1019.70
2018-02-21T02:16:57.653Z,1019.74
2018-02-21T02:17:57.634Z,1019.71
2018-02-21T02:18:57.630Z,1019.70
2018-02-21T02:19:57.590Z,1019.70
2018-02-21T02:20:57.585Z,1019.69
2018-02-21T02:21:57.546Z,1019.69
2018-02-21T02:22:57.528Z,1019.69
2018-02-21T02:23:57.509Z,1019.71
2018-02-21T02:24:57.489Z,1019.68
2018-02-21T02:25:57.480Z,1019.72
2018-02-21T02:26:57.448Z,1019.71
2018-02-21T02:27:57.424Z,1019.73
2018-02-21T02:28:57.402Z,1019.70
2018-02-21T02:29:57.399Z,1019.71
2018-02-21T02:30:57.360Z,1019.73
2018-02-21T02:31:57.358Z,1019.75
2018-02-21T02:32:57.331Z,1019.75
2018-02-21T02:33:57.301Z,1019.76
2018-02-21T02:34:57.276Z,1019.83
2018-02-21T02:35:57.255Z,1019.88
2018-02-21T02:36:57.249Z,1019.89
2018-02-21T02:37:57.225Z,1019.96
2018-02-21T02:38:57.194Z,1020.01
2018-02-21T02:39:57.174Z,1020.06
2018-02-21T02:40:57.150Z,1020.08
2018-02-21T02:41:57.147Z,1020.09
2018-02-21T02:42:57.127Z,1020.11
2018-02-21T02:43:57.088Z,1020.11
2018-02-21T02:44:57.067Z,1020.15
2018-02-21T02:45:57.046Z,1020.12
2018-02-21T02:46:57.038Z,1020.14
2018-02-21T02:47:57.018Z,1020.15
2018-02-21T02:48:56.986Z,1020.14
2018-02-21T02:49:56.968Z,1020.18
2018-02-21T02:50:56.946Z,1020.17
2018-02-21T02:51:56.921Z,1020.23
2018-02-21T02:52:56.935Z,1020.25
2018-02-21T02:53:56.881Z,1020.26
2018-02-21T02:54:56.857Z,1020.33
2018-02-21T02:55:56.840Z,1020.30
2018-02-21T02:56:56.816Z,1020.31
2018-02-21T02:57:56.811Z,1020.31
2018-02-21T02:58:56.773Z,1020.30
2018-02-21T02:59:56.751Z,1020.26
2018-02-21T03:00:56.725Z,1020.27
2018-02-21T03:01:56.710Z,1020.27
2018-02-21T03:02:56.687Z,1020.29
2018-02-21T03:03:56.681Z,1020.30
2018-02-21T03:04:56.640Z,1020.29
2018-02-21T03:05:56.620Z,1020.31
2018-02-21T03:06:56.598Z,1020.28
2018-02-21T03:07:56.579Z,1020.32
2018-02-21T03:08:56.573Z,1020.32
2018-02-21T03:09:56.537Z,1020.28
2018-02-21T03:10:56.513Z,1020.28
2018-02-21T03:11:56.496Z,1020.32
2018-02-21T03:12:56.491Z,1020.33
2018-02-21T03:13:56.450Z,1020.37
2018-02-21T03:14:56.432Z,1020.39
2018-02-21T03:15:56.413Z,1020.38
2018-02-21T03:16:56.392Z,1020.40
2018-02-21T03:17:56.369Z,1020.38
2018-02-21T03:18:56.367Z,1020.40
2018-02-21T03:19:56.327Z,1020.37
2018-02-21T03:20:56.306Z,1020.34
2018-02-21T03:21:56.813Z,1020.30
2018-02-21T03:22:56.266Z,1020.37
2018-02-21T03:23:56.247Z,1020.34
2018-02-21T03:24:56.234Z,1020.36
2018-02-21T03:25:56.218Z,1020.40
2018-02-21T03:26:56.178Z,1020.42
2018-02-21T03:27:56.161Z,1020.47
2018-02-21T03:28:56.136Z,1020.45
2018-02-21T03:29:56.115Z,1020.49
2018-02-21T03:30:56.109Z,1020.47
2018-02-21T03:31:56.075Z,1020.44
2018-02-21T03:32:56.052Z,1020.38
2018-02-21T03:33:56.034Z,1020.38
2018-02-21T03:34:56.012Z,1020.36
2018-02-21T03:35:56.007Z,1020.34
2018-02-21T03:36:55.972Z,1020.33
2018-02-21T03:37:55.947Z,1020.31
2018-02-21T03:38:55.929Z,1020.34
2018-02-21T03:39:55.909Z,1020.35
2018-02-21T03:40:55.880Z,1020.33
2018-02-21T03:41:55.880Z,1020.38
2018-02-21T03:42:55.842Z,1020.36
2018-02-21T03:43:55.822Z,1020.39
2018-02-21T03:44:55.820Z,1020.39
2018-02-21T03:45:55.783Z,1020.40
2018-02-21T03:46:55.762Z,1020.40
2018-02-21T03:47:55.739Z,1020.42
2018-02-21T03:48:56.295Z,1020.42
2018-02-21T03:49:55.699Z,1020.43
2018-02-21T03:50:55.695Z,1020.47
2018-02-21T03:51:55.659Z,1020.45
2018-02-21T03:52:55.646Z,1020.46
2018-02-21T03:53:55.609Z,1020.50
2018-02-21T03:54:55.590Z,1020.54
2018-02-21T03:55:55.595Z,1020.57
2018-02-21T03:56:55.548Z,1020.63
2018-02-21T03:57:55.532Z,1020.63
2018-02-21T03:58:55.514Z,1020.70
2018-02-21T03:59:55.487Z,1020.77
2018-02-21T04:00:55.487Z,1020.81
2018-02-21T04:01:55.459Z,1020.80
2018-02-21T04:02:55.450Z,1020.80
2018-02-21T04:03:55.421Z,1020.82
2018-02-21T04:04:55.387Z,1020.76
2018-02-21T04:05:55.366Z,1020.77
2018-02-21T04:06:55.348Z,1020.76
2018-02-21T04:07:55.325Z,1020.75
2018-02-21T04:08:55.303Z,1020.74
2018-02-21T04:09:55.296Z,1020.70
2018-02-21T04:10:55.257Z,1020.72
2018-02-21T04:11:55.238Z,1020.70
2018-02-21T04:12:55.219Z,1020.72
2018-02-21T04:13:55.203Z,1020.76
2018-02-21T04:14:55.193Z,1020.75
2018-02-21T04:15:55.178Z,1020.79
2018-02-21T04:16:55.136Z,1020.80
2018-02-21T04:17:55.119Z,1020.82
2018-02-21T04:18:55.105Z,1020.82
2018-02-21T04:19:55.076Z,1020.87
2018-02-21T04:20:55.052Z,1020.86
2018-02-21T04:21:55.050Z,1020.89
2018-02-21T04:22:55.011Z,1020.86
2018-02-21T04:23:54.991Z,1020.87
2018-02-21T04:24:54.972Z,1020.87
2018-02-21T04:25:54.947Z,1020.87
2018-02-21T04:26:54.948Z,1020.84
2018-02-21T04:27:54.920Z,1020.81
2018-02-21T04:28:54.892Z,1020.81
2018-02-21T04:29:54.866Z,1020.78
2018-02-21T04:30:54.847Z,1020.79
2018-02-21T04:31:54.830Z,1020.81
2018-02-21T04:32:54.820Z,1020.82
2018-02-21T04:33:54.784Z,1020.88
2018-02-21T04:34:54.763Z,1020.87
2018-02-21T04:35:54.743Z,1020.86
2018-02-21T04:36:54.721Z,1020.85
2018-02-21T04:37:54.717Z,1020.90
2018-02-21T04:38:54.683Z,1020.94
2018-02-21T04:39:54.660Z,1020.91
2018-02-21T04:40:54.640Z,1020.85
2018-02-21T04:41:54.617Z,1020.84
2018-02-21T04:42:54.597Z,1020.82
2018-02-21T04:43:54.594Z,1020.83
2018-02-21T04:44:54.555Z,1020.78
2018-02-21T04:45:54.571Z,1020.81
2018-02-21T04:46:54.512Z,1020.77
2018-02-21T04:47:54.495Z,1020.75
2018-02-21T04:48:54.472Z,1020.75
2018-02-21T04:49:54.450Z,1020.74
2018-02-21T04:50:54.431Z,1020.72
2018-02-21T04:51:54.427Z,1020.74
2018-02-21T04:52:54.391Z,1020.74
2018-02-21T04:53:54.366Z,1020.72
2018-02-21T04:54:54.359Z,1020.70
2018-02-21T04:55:54.334Z,1020.71
2018-02-21T04:56:54.321Z,1020.69
2018-02-21T04:57:54.282Z,1020.72
2018-02-21T04:58:54.266Z,1020.68
2018-02-21T04:59:54.247Z,1020.69
2018-02-21T05:00:54.222Z,1020.64
2018-02-21T05:01:54.203Z,1020.65
2018-02-21T05:02:54.200Z,1020.72
2018-02-21T05:03:54.163Z,1020.65
2018-02-21T05:04:54.139Z,1020.67
2018-02-21T05:05:54.116Z,1020.68
2018-02-21T05:06:54.099Z,1020.67
2018-02-21T05:07:54.094Z,1020.69
2018-02-21T05:08:54.057Z,1020.62
2018-02-21T05:09:54.035Z,1020.60
2018-02-21T05:10:54.020Z,1020.59
2018-02-21T05:11:55.776Z,1020.59
2018-02-21T05:12:53.973Z,1020.59
2018-02-21T05:13:53.964Z,1020.61
2018-02-21T05:14:53.935Z,1020.65
2018-02-21T05:15:53.913Z,1020.67
2018-02-21T05:16:53.904Z,1020.70
2018-02-21T05:17:53.868Z,1020.72
2018-02-21T05:18:53.865Z,1020.69
2018-02-21T05:19:53.833Z,1020.71
2018-02-21T05:20:53.805Z,1020.69
2018-02-21T05:21:53.788Z,1020.67
2018-02-21T05:22:53.766Z,1020.67
2018-02-21T05:23:53.759Z,1020.67
2018-02-21T05:24:53.723Z,1020.70
2018-02-21T05:25:53.700Z,1020.72
2018-02-21T05:26:53.681Z,1020.73
2018-02-21T05:27:53.658Z,1020.71
2018-02-21T05:28:53.655Z,1020.72
2018-02-21T05:29:53.618Z,1020.72
2018-02-21T05:30:53.612Z,1020.76
2018-02-21T05:31:53.582Z,1020.77
2018-02-21T05:32:53.560Z,1020.73
2018-02-21T05:33:53.537Z,1020.74
2018-02-21T05:34:53.528Z,1020.74
2018-02-21T05:35:53.493Z,1020.77
2018-02-21T05:36:53.471Z,1020.83
2018-02-21T05:37:53.457Z,1020.78
2018-02-21T05:38:53.433Z,1020.83
2018-02-21T05:39:53.459Z,1020.80
2018-02-21T05:40:53.383Z,1020.80
2018-02-21T05:41:53.368Z,1020.81
2018-02-21T05:42:53.348Z,1020.79
2018-02-21T05:43:53.326Z,1020.81
2018-02-21T05:44:53.323Z,1020.85
2018-02-21T05:45:53.291Z,1020.80
2018-02-21T05:46:53.265Z,1020.76
2018-02-21T05:47:53.259Z,1020.77
2018-02-21T05:48:53.227Z,1020.76
2018-02-21T05:49:53.216Z,1020.78
2018-02-21T05:50:53.195Z,1020.77
2018-02-21T05:51:53.163Z,1020.77
2018-02-21T05:52:53.139Z,1020.76
2018-02-21T05:53:53.135Z,1020.75
2018-02-21T05:54:53.097Z,1020.77
2018-02-21T05:55:53.082Z,1020.77
2018-02-21T05:56:53.063Z,1020.79
2018-02-21T05:57:53.059Z,1020.83
2018-02-21T05:58:53.030Z,1020.80
2018-02-21T05:59:53.012Z,1020.89
2018-02-21T06:00:52.980Z,1020.89
2018-02-21T06:01:52.958Z,1020.93
2018-02-21T06:02:52.937Z,1020.94
2018-02-21T06:03:54.779Z,1021.02
2018-02-21T06:04:52.908Z,1020.98
2018-02-21T06:05:52.872Z,1020.97
2018-02-21T06:06:52.882Z,1021.01
2018-02-21T06:07:52.835Z,1021.07
2018-02-21T06:08:52.812Z,1021.06
2018-02-21T06:09:52.796Z,1021.05
2018-02-21T06:10:52.774Z,1021.05
2018-02-21T06:11:52.751Z,1021.10
2018-02-21T06:12:52.751Z,1021.11
2018-02-21T06:13:52.712Z,1021.15
2018-02-21T06:14:52.690Z,1021.13
2018-02-21T06:15:52.666Z,1021.18
2018-02-21T06:16:52.650Z,1021.14
2018-02-21T06:17:52.631Z,1021.18
2018-02-21T06:18:52.620Z,1021.26
2018-02-21T06:19:52.591Z,1021.22
2018-02-21T06:20:52.574Z,1021.24
2018-02-21T06:21:52.544Z,1021.25
2018-02-21T06:22:52.547Z,1021.23
2018-02-21T06:23:52.508Z,1021.20
2018-02-21T06:24:52.483Z,1021.24
2018-02-21T06:25:52.472Z,1021.26
2018-02-21T06:26:52.471Z,1021.28
2018-02-21T06:27:52.452Z,1021.32
2018-02-21T06:28:52.475Z,1021.33
2018-02-21T06:29:52.408Z,1021.34
2018-02-21T06:30:52.391Z,1021.36
2018-02-21T06:31:52.347Z,1021.39
2018-02-21T06:32:52.341Z,1021.41
2018-02-21T06:33:52.336Z,1021.48
2018-02-21T06:34:52.413Z,1021.48
2018-02-21T06:35:52.333Z,1021.52
2018-02-21T06:36:52.304Z,1021.47
2018-02-21T06:37:52.231Z,1021.50
2018-02-21T06:38:52.235Z,1021.48
2018-02-21T06:39:52.333Z,1021.45
2018-02-21T06:40:52.581Z,1021.47
2018-02-21T06:41:52.185Z,1021.49
2018-02-21T06:42:52.217Z,1021.50
2018-02-21T06:43:52.264Z,1021.50
2018-02-21T06:44:52.168Z,1021.49
2018-02-21T06:45:52.157Z,1021.50
2018-02-21T06:46:52.178Z,1021.46
2018-02-21T06:47:52.232Z,1021.44
2018-02-21T06:48:52.111Z,1021.46
2018-02-21T06:49:52.131Z,1021.45
2018-02-21T06:50:52.004Z,1021.47
2018-02-21T06:51:52.803Z,1021.47
2018-02-21T06:52:52.073Z,1021.46
2018-02-21T06:53:51.958Z,1021.51
2018-02-21T06:54:51.999Z,1021.52
2018-02-21T06:55:51.907Z,1021.53
2018-02-21T06:56:51.856Z,1021.57
2018-02-21T06:57:51.867Z,1021.58
2018-02-21T06:58:51.811Z,1021.55
2018-02-21T06:59:51.796Z,1021.57
2018-02-21T07:00:51.792Z,1021.56
2018-02-21T07:01:51.772Z,1021.56
2018-02-21T07:02:51.802Z,1021.57
2018-02-21T07:03:51.752Z,1021.58
2018-02-21T07:04:51.714Z,1021.68
2018-02-21T07:05:51.646Z,1021.64
2018-02-21T07:06:51.646Z,1021.65
2018-02-21T07:07:51.637Z,1021.58
2018-02-21T07:08:51.605Z,1021.53
2018-02-21T07:09:51.569Z,1021.51
2018-02-21T07:10:51.552Z,1021.49
2018-02-21T07:11:51.544Z,1021.48
2018-02-21T07:12:51.528Z,1021.48
2018-02-21T07:13:51.500Z,1021.49
2018-02-21T07:14:51.457Z,1021.51
2018-02-21T07:15:52.320Z,1021.54
2018-02-21T07:16:51.416Z,1021.54
2018-02-21T07:17:51.400Z,1021.52
2018-02-21T07:18:51.375Z,1021.50
2018-02-21T07:19:51.362Z,1021.56
2018-02-21T07:20:51.354Z,1021.52
2018-02-21T07:21:51.316Z,1021.60
2018-02-21T07:22:51.293Z,1021.53
2018-02-21T07:23:51.282Z,1021.53
2018-02-21T07:24:51.249Z,1021.52
2018-02-21T07:25:51.227Z,1021.48
2018-02-21T07:26:51.239Z,1021.54
2018-02-21T07:27:51.195Z,1021.52
2018-02-21T07:28:51.170Z,1021.51
2018-02-21T07:29:51.150Z,1021.53
2018-02-21T07:30:51.138Z,1021.48
2018-02-21T07:31:51.106Z,1021.52
2018-02-21T07:32:51.100Z,1021.49
2018-02-21T07:33:51.063Z,1021.52
2018-02-21T07:34:51.044Z,1021.52
2018-02-21T07:35:51.026Z,1021.51
2018-02-21T07:36:51.004Z,1021.53
2018-02-21T07:37:50.987Z,1021.52
2018-02-21T07:38:50.994Z,1021.49
2018-02-21T07:39:50.991Z,1021.55
2018-02-21T07:40:50.922Z,1021.54
2018-02-21T07:41:50.913Z,1021.54
2018-02-21T07:42:50.884Z,1021.57
2018-02-21T07:43:50.880Z,1021.54
2018-02-21T07:44:50.838Z,1021.56
2018-02-21T07:45:50.816Z,1021.54
2018-02-21T07:46:50.796Z,1021.51
2018-02-21T07:47:50.796Z,1021.54
2018-02-21T07:48:50.755Z,1021.55
2018-02-21T07:49:50.730Z,1021.52
2018-02-21T07:50:50.720Z,1021.54
2018-02-21T07:51:50.698Z,1021.55
2018-02-21T07:52:50.677Z,1021.56
2018-02-21T07:53:50.677Z,1021.52
2018-02-21T07:54:51.315Z,1021.61
2018-02-21T07:55:50.616Z,1021.58
2018-02-21T07:56:50.596Z,1021.60
2018-02-21T07:57:50.581Z,1021.63
2018-02-21T07:58:50.570Z,1021.62
2018-02-21T07:59:50.549Z,1021.63
2018-02-21T08:00:50.510Z,1021.67
2018-02-21T08:01:50.501Z,1021.70
2018-02-21T08:02:50.488Z,1021.69
2018-02-21T08:03:50.446Z,1021.68
2018-02-21T08:04:50.429Z,1021.71
2018-02-21T08:05:50.410Z,1021.73
2018-02-21T08:06:50.410Z,1021.77
2018-02-21T08:07:50.372Z,1021.75
2018-02-21T08:08:50.382Z,1021.75
2018-02-21T08:09:50.343Z,1021.76
2018-02-21T08:10:50.312Z,1021.77
2018-02-21T08:11:50.292Z,1021.71
2018-02-21T08:12:50.270Z,1021.74
2018-02-21T08:13:50.244Z,1021.75
2018-02-21T08:14:50.233Z,1021.73
2018-02-21T08:15:50.229Z,1021.75
2018-02-21T08:16:50.188Z,1021.75
2018-02-21T08:17:50.170Z,1021.73
2018-02-21T08:18:50.175Z,1021.76
2018-02-21T08:19:50.130Z,1021.75
2018-02-21T08:20:50.160Z,1021.78
2018-02-21T08:21:50.082Z,1021.76
2018-02-21T08:22:50.066Z,1021.78
2018-02-21T08:23:50.046Z,1021.77
2018-02-21T08:24:50.021Z,1021.80
2018-02-21T08:25:50.007Z,1021.77
2018-02-21T08:26:50.004Z,1021.80
2018-02-21T08:27:49.965Z,1021.80
2018-02-21T08:28:49.944Z,1021.81
2018-02-21T08:29:49.918Z,1021.80
2018-02-21T08:30:49.906Z,1021.81
2018-02-21T08:31:49.899Z,1021.79
2018-02-21T08:32:49.864Z,1021.75
2018-02-21T08:33:49.848Z,1021.81
2018-02-21T08:34:49.826Z,1021.80
2018-02-21T08:35:49.806Z,1021.80
2018-02-21T08:36:49.801Z,1021.74
2018-02-21T08:37:49.763Z,1021.71
2018-02-21T08:38:49.746Z,1021.72
2018-02-21T08:39:49.727Z,1021.71
2018-02-21T08:40:49.706Z,1021.75
2018-02-21T08:41:49.707Z,1021.71
2018-02-21T08:42:49.680Z,1021.74
2018-02-21T08:43:49.649Z,1021.77
2018-02-21T08:44:49.627Z,1021.78
2018-02-21T08:45:49.601Z,1021.82
2018-02-21T08:46:49.582Z,1021.83
2018-02-21T08:47:49.591Z,1021.81
2018-02-21T08:48:49.546Z,1021.79
2018-02-21T08:49:49.525Z,1021.81
2018-02-21T08:50:49.505Z,1021.80
2018-02-21T08:51:49.484Z,1021.76
2018-02-21T08:52:49.511Z,1021.77
2018-02-21T08:53:49.464Z,1021.78
2018-02-21T08:54:49.423Z,1021.75
2018-02-21T08:55:49.407Z,1021.76
2018-02-21T08:56:49.386Z,1021.75
2018-02-21T08:57:49.389Z,1021.74
2018-02-21T08:58:49.384Z,1021.68
2018-02-21T08:59:49.341Z,1021.69
2018-02-21T09:00:49.307Z,1021.67
2018-02-21T09:01:49.288Z,1021.69
2018-02-21T09:02:49.272Z,1021.67
2018-02-21T09:03:49.253Z,1021.68
2018-02-21T09:04:49.229Z,1021.68
2018-02-21T09:05:49.226Z,1021.66
2018-02-21T09:06:49.185Z,1021.68
2018-02-21T09:07:49.172Z,1021.65
2018-02-21T09:08:49.190Z,1021.63
2018-02-21T09:09:49.140Z,1021.64
2018-02-21T09:10:49.112Z,1021.67
2018-02-21T09:12:10.102Z,1021.67
2018-02-21T09:12:49.067Z,1021.64
2018-02-21T09:13:49.066Z,1021.61
2018-02-21T09:14:49.034Z,1021.59
2018-02-21T09:15:50.789Z,1021.60
2018-02-21T09:16:49.009Z,1021.59
2018-02-21T09:17:48.975Z,1021.62
2018-02-21T09:18:49.829Z,1021.58
2018-02-21T09:19:48.936Z,1021.55
2018-02-21T09:20:48.913Z,1021.60
2018-02-21T09:21:48.923Z,1021.62
2018-02-21T09:22:48.880Z,1021.58
2018-02-21T09:23:48.864Z,1021.62
2018-02-21T09:24:48.851Z,1021.63
2018-02-21T09:25:48.814Z,1021.73
2018-02-21T09:26:48.802Z,1021.72
2018-02-21T09:27:48.778Z,1021.73
2018-02-21T09:28:48.754Z,1021.73
2018-02-21T09:29:48.738Z,1021.73
2018-02-21T09:30:48.733Z,1021.74
2018-02-21T09:31:48.698Z,1021.70
2018-02-21T09:32:48.679Z,1021.73
2018-02-21T09:33:48.682Z,1021.69
2018-02-21T09:34:48.641Z,1021.70
2018-02-21T09:35:48.623Z,1021.78
2018-02-21T09:36:48.604Z,1021.78
2018-02-21T09:37:48.594Z,1021.77
2018-02-21T09:38:48.583Z,1021.77
2018-02-21T09:39:48.560Z,1021.78
2018-02-21T09:40:48.544Z,1021.75
2018-02-21T09:41:48.506Z,1021.82
2018-02-21T09:42:48.489Z,1021.80
2018-02-21T09:43:48.473Z,1021.77
2018-02-21T09:45:09.459Z,1021.77
2018-02-21T09:45:48.426Z,1021.77
2018-02-21T09:46:48.427Z,1021.79
2018-02-21T09:47:48.393Z,1021.80
2018-02-21T09:48:48.374Z,1021.74
2018-02-21T09:49:48.347Z,1021.76
2018-02-21T09:50:48.349Z,1021.77
2018-02-21T09:51:48.314Z,1021.77
2018-02-21T09:52:48.295Z,1021.77
2018-02-21T09:53:48.278Z,1021.75
2018-02-21T09:54:48.267Z,1021.73
2018-02-21T09:55:48.250Z,1021.72
2018-02-21T09:56:48.220Z,1021.71
2018-02-21T09:57:48.216Z,1021.74
2018-02-21T09:58:48.198Z,1021.75
2018-02-21T09:59:48.166Z,1021.75
2018-02-21T10:00:48.144Z,1021.73
2018-02-21T10:01:48.138Z,1021.77
2018-02-21T10:02:48.112Z,1021.75
2018-02-21T10:03:48.093Z,1021.80
2018-02-21T10:04:48.068Z,1021.82
2018-02-21T10:05:48.045Z,1021.80
2018-02-21T10:06:48.032Z,1021.78
2018-02-21T10:07:48.028Z,1021.84
2018-02-21T10:08:47.987Z,1021.79
2018-02-21T10:09:47.970Z,1021.81
2018-02-21T10:10:47.953Z,1021.80
2018-02-21T10:11:47.935Z,1021.81
2018-02-21T10:12:47.920Z,1021.76
2018-02-21T10:13:47.910Z,1021.78
2018-02-21T10:14:47.905Z,1021.77
2018-02-21T10:15:47.862Z,1021.75
2018-02-21T10:16:47.844Z,1021.76
2018-02-21T10:17:47.819Z,1021.75
2018-02-21T10:18:47.836Z,1021.67
2018-02-21T10:19:47.794Z,1021.69
2018-02-21T10:20:47.773Z,1021.70
2018-02-21T10:21:47.749Z,1021.74
2018-02-21T10:22:47.731Z,1021.77
2018-02-21T10:23:47.732Z,1021.80
2018-02-21T10:24:47.690Z,1021.83
2018-02-21T10:25:47.670Z,1021.86
2018-02-21T10:26:47.659Z,1021.85
2018-02-21T10:27:47.658Z,1021.81
2018-02-21T10:28:47.633Z,1021.79
2018-02-21T10:29:47.605Z,1021.83
2018-02-21T10:30:47.604Z,1021.81
2018-02-21T10:31:47.567Z,1021.80
2018-02-21T10:32:47.560Z,1021.80
2018-02-21T10:33:47.529Z,1021.78
2018-02-21T10:34:47.510Z,1021.77
2018-02-21T10:35:47.491Z,1021.73
2018-02-21T10:36:47.470Z,1021.81
2018-02-21T10:37:47.471Z,1021.86
2018-02-21T10:38:48.364Z,1021.80
2018-02-21T10:39:47.421Z,1021.77
2018-02-21T10:40:48.298Z,1021.73
2018-02-21T10:41:47.379Z,1021.76
2018-02-21T10:42:47.361Z,1021.73
2018-02-21T10:43:47.370Z,1021.69
2018-02-21T10:44:47.332Z,1021.69
2018-02-21T10:45:47.309Z,1021.66
2018-02-21T10:46:47.294Z,1021.78
2018-02-21T10:47:47.278Z,1021.75
2018-02-21T10:48:47.284Z,1021.76
2018-02-21T10:49:47.244Z,1021.81
2018-02-21T10:50:47.229Z,1021.76
2018-02-21T10:51:47.201Z,1021.78
2018-02-21T10:52:47.207Z,1021.70
2018-02-21T10:53:47.173Z,1021.69
2018-02-21T10:54:47.170Z,1021.75
2018-02-21T10:55:47.153Z,1021.76
2018-02-21T10:56:47.123Z,1021.73
2018-02-21T10:57:47.107Z,1021.75
2018-02-21T10:58:47.092Z,1021.74
2018-02-21T10:59:47.081Z,1021.76
2018-02-21T11:00:47.076Z,1021.77
2018-02-21T11:01:47.046Z,1021.72
2018-02-21T11:02:47.034Z,1021.73
2018-02-21T11:03:47.021Z,1021.80
2018-02-21T11:04:47.024Z,1021.78
2018-02-21T11:05:46.988Z,1021.81
2018-02-21T11:06:46.973Z,1021.82
2018-02-21T11:07:46.964Z,1021.81
2018-02-21T11:08:46.953Z,1021.87
2018-02-21T11:09:46.928Z,1021.88
2018-02-21T11:10:46.944Z,1021.91
2018-02-21T11:11:46.909Z,1021.87
2018-02-21T11:12:46.896Z,1021.86
2018-02-21T11:13:46.879Z,1021.87
2018-02-21T11:14:46.873Z,1021.89
2018-02-21T11:15:46.861Z,1021.93
2018-02-21T11:16:46.859Z,1021.90
2018-02-21T11:17:46.840Z,1021.85
2018-02-21T11:18:46.840Z,1021.92
2018-02-21T11:19:46.816Z,1021.89
2018-02-21T11:20:46.797Z,1021.87
2018-02-21T11:21:46.787Z,1021.92
2018-02-21T11:22:46.782Z,1021.89
2018-02-21T11:23:46.761Z,1021.87
2018-02-21T11:24:46.775Z,1021.92
2018-02-21T11:25:46.743Z,1021.95
2018-02-21T11:26:46.734Z,1021.89
2018-02-21T11:27:46.724Z,1021.87
2018-02-21T11:28:46.713Z,1021.93
2018-02-21T11:29:47.809Z,1021.87
2018-02-21T11:30:46.692Z,1021.88
2018-02-21T11:31:46.784Z,1021.88
2018-02-21T11:32:46.672Z,1021.85
2018-02-21T11:33:46.663Z,1021.81
2018-02-21T11:34:46.651Z,1021.75
2018-02-21T11:35:46.672Z,1021.75
2018-02-21T11:36:46.630Z,1021.78
2018-02-21T11:37:46.611Z,1021.72
2018-02-21T11:38:46.616Z,1021.73
2018-02-21T11:39:46.628Z,1021.74
2018-02-21T11:40:46.601Z,1021.76
2018-02-21T11:41:46.576Z,1021.75
2018-02-21T11:42:46.580Z,1021.76
2018-02-21T11:43:46.558Z,1021.74
2018-02-21T11:44:46.545Z,1021.72
2018-02-21T11:45:46.537Z,1021.71
2018-02-21T11:46:46.525Z,1021.74
2018-02-21T11:47:46.518Z,1021.71
2018-02-21T11:48:46.533Z,1021.68
2018-02-21T11:49:47.314Z,1021.68
2018-02-21T11:50:46.490Z,1021.70
2018-02-21T11:51:46.481Z,1021.67
2018-02-21T11:52:46.509Z,1021.68
2018-02-21T11:53:46.463Z,1021.70
2018-02-21T11:54:46.441Z,1021.68
2018-02-21T11:55:46.433Z,1021.68
2018-02-21T11:56:46.422Z,1021.68
2018-02-21T11:57:46.439Z,1021.71
2018-02-21T11:58:46.412Z,1021.68
2018-02-21T11:59:46.417Z,1021.68
2018-02-21T12:00:46.390Z,1021.65
2018-02-21T12:01:46.379Z,1021.62
2018-02-21T12:02:46.397Z,1021.59
2018-02-21T12:03:46.372Z,1021.58
2018-02-21T12:04:46.399Z,1021.57